createdAt,value
2018-05-19T00:00:28.820Z,12.85
2018-05-19T00:01:32.879Z,14.10
2018-05-19T00:02:37.687Z,11.48
2018-05-19T00:03:41.779Z,13.55
2018-05-19T00:04:45.860Z,14.43
2018-05-19T00:05:49.920Z,9.70
2018-05-19T00:06:54.348Z,11.00
2018-05-19T00:07:58.483Z,15.75
2018-05-19T00:09:02.609Z,15.10
2018-05-19T00:10:06.684Z,12.00
2018-05-19T00:11:10.759Z,8.57
2018-05-19T00:12:15.111Z,17.15
2018-05-19T00:13:19.261Z,12.18
2018-05-19T00:14:23.314Z,10.52
2018-05-19T00:15:27.394Z,12.73
2018-05-19T00:16:31.501Z,8.65
2018-05-19T00:17:35.540Z,11.77
2018-05-19T00:18:40.684Z,10.35
2018-05-19T00:19:44.723Z,10.13
2018-05-19T00:20:48.767Z,12.05
2018-05-19T00:21:53.094Z,12.23
2018-05-19T00:22:57.346Z,9.20
2018-05-19T00:24:02.132Z,11.18
2018-05-19T00:25:06.673Z,9.65
2018-05-19T00:26:11.081Z,14.30
2018-05-19T00:27:15.195Z,12.02
2018-05-19T00:28:19.279Z,9.40
2018-05-19T00:29:23.328Z,12.68
2018-05-19T00:30:28.191Z,8.82
2018-05-19T00:31:32.247Z,12.02
2018-05-19T00:32:37.239Z,11.57
2018-05-19T00:33:41.488Z,8.07
2018-05-19T00:34:46.484Z,12.15
2018-05-19T00:35:50.742Z,9.95
2018-05-19T00:36:54.795Z,9.57
2018-05-19T00:37:58.860Z,12.15
2018-05-19T00:39:02.982Z,12.88
2018-05-19T00:40:07.047Z,9.30
2018-05-19T00:41:11.185Z,12.60
2018-05-19T00:42:15.253Z,10.38
2018-05-19T00:43:19.323Z,9.88
2018-05-19T00:44:24.439Z,10.98
2018-05-19T00:45:28.654Z,12.90
2018-05-19T00:46:33.681Z,10.48
2018-05-19T00:47:38.687Z,11.63
2018-05-19T00:48:42.915Z,13.23
2018-05-19T00:49:48.162Z,11.18
2018-05-19T00:50:52.375Z,7.20
2018-05-19T00:51:56.598Z,8.60
2018-05-19T00:53:00.820Z,10.98
2018-05-19T00:54:04.947Z,11.93
2018-05-19T00:55:09.844Z,13.73
2018-05-19T00:56:13.915Z,10.48
2018-05-19T00:57:17.975Z,9.98
2018-05-19T00:58:22.758Z,8.95
2018-05-19T00:59:26.818Z,10.93
2018-05-19T01:00:30.861Z,8.70
2018-05-19T01:01:34.922Z,15.30
2018-05-19T01:02:38.975Z,8.75
2018-05-19T01:03:43.051Z,10.02
2018-05-19T01:04:47.859Z,12.05
2018-05-19T01:05:51.897Z,9.00
2018-05-19T01:06:56.251Z,11.68
2018-05-19T01:08:00.303Z,9.60
2018-05-19T01:09:05.907Z,9.48
2018-05-19T01:10:10.128Z,11.12
2018-05-19T01:11:14.391Z,12.80
2018-05-19T01:12:18.626Z,10.50
2018-05-19T01:13:23.160Z,10.43
2018-05-19T01:14:27.399Z,14.80
2018-05-19T01:15:32.324Z,12.63
2018-05-19T01:16:37.194Z,11.45
2018-05-19T01:17:42.007Z,11.52
2018-05-19T01:18:46.830Z,10.57
2018-05-19T01:19:50.927Z,13.48
2018-05-19T01:20:54.991Z,8.90
2018-05-19T01:21:59.819Z,8.95
2018-05-19T01:23:04.631Z,12.02
2018-05-19T01:24:09.596Z,8.85
2018-05-19T01:25:14.683Z,13.77
2018-05-19T01:26:19.511Z,14.73
2018-05-19T01:27:23.630Z,12.25
2018-05-19T01:28:27.669Z,9.82
2018-05-19T01:29:31.732Z,7.65
2018-05-19T01:30:35.763Z,11.48
2018-05-19T01:31:40.122Z,10.23
2018-05-19T01:32:44.956Z,14.48
2018-05-19T01:33:49.095Z,13.48
2018-05-19T01:34:53.259Z,12.35
2018-05-19T01:35:57.475Z,14.38
2018-05-19T01:37:01.730Z,11.35
2018-05-19T01:38:06.004Z,9.63
2018-05-19T01:39:10.054Z,12.95
2018-05-19T01:40:14.864Z,10.48
2018-05-19T01:41:18.951Z,11.68
2018-05-19T01:42:23.002Z,11.43
2018-05-19T01:43:27.356Z,13.27
2018-05-19T01:44:31.504Z,10.63
2018-05-19T01:45:36.307Z,10.32
2018-05-19T01:46:41.137Z,13.27
2018-05-19T01:47:45.962Z,9.85
2018-05-19T01:48:50.035Z,12.88
2018-05-19T01:49:54.559Z,10.07
2018-05-19T01:50:59.530Z,8.75
2018-05-19T01:52:03.760Z,10.43
2018-05-19T01:53:08.049Z,12.43
2018-05-19T01:54:12.288Z,11.95
2018-05-19T01:55:16.818Z,10.75
2018-05-19T01:56:21.805Z,9.10
2018-05-19T01:57:26.043Z,9.05
2018-05-19T01:58:30.859Z,13.90
2018-05-19T01:59:35.759Z,8.98
2018-05-19T02:00:39.804Z,11.23
2018-05-19T02:01:44.162Z,10.80
2018-05-19T02:02:48.219Z,11.40
2018-05-19T02:03:52.332Z,8.80
2018-05-19T02:04:56.426Z,11.10
2018-05-19T02:06:00.543Z,11.32
2018-05-19T02:07:04.621Z,11.38
2018-05-19T02:08:08.984Z,12.40
2018-05-19T02:09:13.039Z,13.52
2018-05-19T02:10:17.339Z,13.32
2018-05-19T02:11:21.426Z,11.82
2018-05-19T02:12:26.328Z,16.90
2018-05-19T02:13:30.674Z,9.52
2018-05-19T02:14:34.741Z,14.77
2018-05-19T02:15:38.795Z,7.72
2018-05-19T02:16:42.869Z,9.85
2018-05-19T02:17:48.011Z,8.52
2018-05-19T02:18:52.227Z,11.85
2018-05-19T02:19:56.763Z,11.20
2018-05-19T02:21:00.976Z,11.18
2018-05-19T02:22:05.240Z,10.82
2018-05-19T02:23:10.251Z,8.40
2018-05-19T02:24:14.508Z,12.52
2018-05-19T02:25:18.724Z,9.75
2018-05-19T02:26:22.923Z,8.10
2018-05-19T02:27:27.339Z,18.75
2018-05-19T02:28:31.556Z,10.63
2018-05-19T02:29:36.911Z,8.05
2018-05-19T02:30:41.929Z,7.65
2018-05-19T02:31:47.171Z,10.77
2018-05-19T02:32:51.529Z,9.50
2018-05-19T02:33:55.775Z,7.55
2018-05-19T02:35:00.802Z,14.20
2018-05-19T02:36:05.035Z,14.82
2018-05-19T02:37:09.311Z,14.25
2018-05-19T02:38:14.607Z,10.07
2018-05-19T02:39:18.823Z,11.02
2018-05-19T02:40:23.035Z,13.52
2018-05-19T02:41:27.231Z,12.82
2018-05-19T02:42:31.461Z,11.23
2018-05-19T02:43:35.689Z,13.85
2018-05-19T02:44:39.987Z,9.57
2018-05-19T02:45:44.259Z,8.88
2018-05-19T02:46:48.471Z,12.77
2018-05-19T02:47:53.503Z,11.73
2018-05-19T02:48:58.483Z,11.40
2018-05-19T02:50:02.715Z,8.07
2018-05-19T02:54:17.561Z,12.95
2018-05-19T02:55:21.818Z,12.00
2018-05-19T02:56:26.015Z,8.55
2018-05-19T02:57:31.060Z,11.27
2018-05-19T02:58:35.301Z,11.68
2018-05-19T02:59:39.528Z,10.70
2018-05-19T03:02:42.098Z,10.27
2018-05-19T03:03:46.284Z,14.23
2018-05-19T03:04:50.329Z,14.13
2018-05-19T03:05:55.181Z,12.50
2018-05-19T03:06:59.250Z,11.57
2018-05-19T03:08:04.146Z,8.50
2018-05-19T03:09:08.309Z,9.93
2018-05-19T03:10:12.428Z,9.07
2018-05-19T03:11:16.472Z,11.55
2018-05-19T03:12:20.543Z,11.93
2018-05-19T03:13:24.645Z,11.85
2018-05-19T03:14:28.743Z,12.20
2018-05-19T03:15:32.942Z,10.70
2018-05-19T03:16:37.042Z,11.85
2018-05-19T03:17:41.517Z,6.75
2018-05-19T03:18:46.482Z,16.77
2018-05-19T03:19:50.694Z,15.93
2018-05-19T03:20:54.757Z,14.45
2018-05-19T03:21:58.842Z,10.05
2018-05-19T03:23:03.755Z,9.07
2018-05-19T03:24:08.558Z,9.02
2018-05-19T03:25:12.920Z,12.37
2018-05-19T03:26:17.159Z,14.45
2018-05-19T03:27:21.351Z,9.52
2018-05-19T03:28:25.572Z,13.77
2018-05-19T03:29:29.775Z,10.82
2018-05-19T03:30:33.798Z,11.98
2018-05-19T03:31:38.652Z,11.05
2018-05-19T03:32:42.666Z,10.80
2018-05-19T03:33:46.683Z,9.45
2018-05-19T03:34:50.751Z,8.70
2018-05-19T03:35:54.775Z,14.23
2018-05-19T03:36:58.834Z,11.57
2018-05-19T03:38:03.663Z,11.75
2018-05-19T03:39:07.752Z,8.55
2018-05-19T03:40:12.752Z,9.82
2018-05-19T03:41:16.980Z,13.35
2018-05-19T03:42:21.967Z,12.32
2018-05-19T03:43:27.297Z,10.88
2018-05-19T03:44:31.470Z,10.25
2018-05-19T03:45:35.679Z,12.77
2018-05-19T03:46:40.695Z,10.15
2018-05-19T03:47:44.882Z,11.35
2018-05-19T03:48:49.919Z,11.35
2018-05-19T03:49:54.442Z,13.32
2018-05-19T03:50:58.585Z,13.35
2018-05-19T03:52:02.625Z,12.98
2018-05-19T03:53:06.665Z,10.77
2018-05-19T03:54:11.499Z,13.57
2018-05-19T03:55:15.522Z,9.80
2018-05-19T03:56:19.586Z,12.85
2018-05-19T03:59:35.406Z,8.20
2018-05-19T04:02:46.995Z,13.43
2018-05-19T04:03:51.201Z,12.37
2018-05-19T04:04:55.386Z,9.57
2018-05-19T04:05:59.554Z,9.93
2018-05-19T04:07:03.562Z,14.60
2018-05-19T04:08:07.633Z,12.32
2018-05-19T04:09:12.720Z,10.48
2018-05-19T04:10:16.772Z,10.40
2018-05-19T04:11:20.877Z,16.33
2018-05-19T04:12:24.914Z,10.93
2018-05-19T04:13:28.945Z,8.80
2018-05-19T04:14:33.294Z,10.88
2018-05-19T04:15:37.363Z,10.27
2018-05-19T04:16:42.216Z,13.35
2018-05-19T04:17:47.003Z,10.32
2018-05-19T04:18:52.161Z,10.55
2018-05-19T04:19:56.596Z,9.35
2018-05-19T04:21:00.634Z,11.73
2018-05-19T04:22:04.675Z,9.65
2018-05-19T04:23:08.719Z,13.15
2018-05-19T04:24:12.771Z,11.63
2018-05-19T04:25:16.772Z,8.27
2018-05-19T04:26:20.822Z,12.10
2018-05-19T04:27:25.152Z,10.60
2018-05-19T04:28:30.493Z,8.75
2018-05-19T04:29:35.219Z,12.85
2018-05-19T04:30:39.447Z,12.20
2018-05-19T04:32:46.105Z,9.88
2018-05-19T04:33:51.007Z,10.90
2018-05-19T04:34:55.278Z,11.70
2018-05-19T04:35:59.471Z,11.73
2018-05-19T04:37:03.748Z,9.93
2018-05-19T04:38:07.942Z,9.02
2018-05-19T04:39:12.195Z,12.25
2018-05-19T04:40:16.680Z,9.85
2018-05-19T04:41:20.894Z,11.98
2018-05-19T04:42:25.107Z,15.95
2018-05-19T04:43:29.311Z,13.13
2018-05-19T04:44:33.330Z,9.25
2018-05-19T04:45:37.380Z,11.35
2018-05-19T04:46:41.446Z,13.13
2018-05-19T04:47:45.542Z,15.98
2018-05-19T04:48:49.683Z,8.77
2018-05-19T04:49:53.726Z,9.93
2018-05-19T04:50:57.758Z,11.48
2018-05-19T04:52:02.559Z,11.02
2018-05-19T04:53:06.757Z,9.20
2018-05-19T04:54:10.982Z,10.60
2018-05-19T04:55:15.252Z,15.20
2018-05-19T04:56:19.459Z,9.25
2018-05-19T04:57:23.682Z,10.15
2018-05-19T04:58:27.870Z,10.18
2018-05-19T04:59:32.956Z,8.57
2018-05-19T05:00:37.869Z,9.85
2018-05-19T05:01:42.635Z,9.27
2018-05-19T05:02:47.106Z,10.98
2018-05-19T05:03:51.373Z,11.23
2018-05-19T05:04:55.718Z,13.43
2018-05-19T05:06:00.024Z,9.65
2018-05-19T05:07:04.286Z,12.05
2018-05-19T05:08:08.590Z,12.25
2018-05-19T05:09:12.780Z,11.12
2018-05-19T05:10:16.994Z,10.15
2018-05-19T05:11:21.206Z,11.10
2018-05-19T05:12:28.042Z,10.23
2018-05-19T05:13:32.087Z,11.35
2018-05-19T05:14:36.488Z,12.80
2018-05-19T05:15:40.534Z,10.02
2018-05-19T05:16:44.574Z,15.60
2018-05-19T05:17:49.993Z,9.73
2018-05-19T05:18:54.900Z,8.45
2018-05-19T05:19:58.933Z,10.90
2018-05-19T05:21:02.994Z,15.25
2018-05-19T05:22:07.266Z,16.58
2018-05-19T05:23:11.879Z,11.10
2018-05-19T05:24:15.990Z,11.38
2018-05-19T05:25:20.985Z,10.93
2018-05-19T05:26:25.002Z,9.68
2018-05-19T05:27:29.063Z,17.90
2018-05-19T05:28:33.262Z,16.40
2018-05-19T05:29:38.651Z,8.57
2018-05-19T05:30:43.460Z,13.40
2018-05-19T05:31:47.774Z,14.20
2018-05-19T05:32:53.059Z,9.60
2018-05-19T05:33:57.795Z,9.77
2018-05-19T05:35:02.007Z,12.57
2018-05-19T05:36:06.517Z,9.30
2018-05-19T05:37:10.746Z,12.57
2018-05-19T05:38:15.759Z,9.77
2018-05-19T05:39:19.947Z,8.38
2018-05-19T05:40:24.185Z,12.18
2018-05-19T05:41:28.399Z,17.33
2018-05-19T05:42:32.633Z,12.88
2018-05-19T05:43:36.770Z,11.23
2018-05-19T05:44:40.881Z,8.85
2018-05-19T05:45:44.992Z,12.57
2018-05-19T05:46:49.838Z,10.40
2018-05-19T05:47:53.884Z,14.82
2018-05-19T05:48:58.086Z,9.95
2018-05-19T05:50:03.003Z,15.75
2018-05-19T05:51:07.021Z,11.35
2018-05-19T05:52:11.078Z,14.05
2018-05-19T05:53:15.252Z,11.65
2018-05-19T05:54:19.349Z,12.98
2018-05-19T05:55:23.416Z,12.63
2018-05-19T05:56:27.503Z,9.85
2018-05-19T05:57:31.583Z,13.30
2018-05-19T05:58:35.664Z,14.43
2018-05-19T05:59:39.834Z,14.23
2018-05-19T06:00:44.018Z,9.63
2018-05-19T06:01:48.206Z,14.00
2018-05-19T06:02:52.263Z,8.52
2018-05-19T06:03:56.389Z,12.75
2018-05-19T06:05:01.241Z,12.37
2018-05-19T06:06:05.268Z,11.07
2018-05-19T06:07:10.162Z,7.20
2018-05-19T06:08:14.847Z,10.02
2018-05-19T06:09:19.805Z,13.70
2018-05-19T06:10:24.010Z,12.13
2018-05-19T06:11:28.094Z,9.32
2018-05-19T06:12:32.191Z,11.55
2018-05-19T06:13:36.576Z,9.80
2018-05-19T06:14:41.463Z,13.32
2018-05-19T06:15:45.534Z,16.15
2018-05-19T06:16:49.584Z,11.18
2018-05-19T06:17:53.632Z,12.43
2018-05-19T06:18:57.984Z,12.35
2018-05-19T06:20:02.050Z,12.80
2018-05-19T06:21:06.086Z,14.40
2018-05-19T06:22:10.185Z,10.65
2018-05-19T06:23:14.253Z,11.00
2018-05-19T06:24:18.330Z,12.88
2018-05-19T06:25:23.522Z,11.25
2018-05-19T06:26:27.683Z,13.23
2018-05-19T06:27:31.762Z,9.88
2018-05-19T06:28:36.603Z,13.60
2018-05-19T06:29:40.770Z,10.82
2018-05-19T06:30:45.062Z,14.57
2018-05-19T06:31:49.718Z,11.80
2018-05-19T06:32:53.938Z,13.40
2018-05-19T06:33:58.759Z,12.35
2018-05-19T06:35:03.121Z,11.93
2018-05-19T06:36:08.182Z,14.60
2018-05-19T06:37:12.450Z,15.55
2018-05-19T06:38:16.642Z,10.10
2018-05-19T06:39:20.732Z,15.32
2018-05-19T06:40:25.103Z,11.10
2018-05-19T06:41:29.134Z,16.37
2018-05-19T06:42:33.522Z,10.75
2018-05-19T06:43:37.609Z,11.12
2018-05-19T06:44:42.129Z,11.25
2018-05-19T06:45:46.199Z,9.30
2018-05-19T06:46:51.363Z,11.98
2018-05-19T06:47:55.515Z,11.07
2018-05-19T06:49:00.489Z,13.32
2018-05-19T06:50:04.810Z,11.85
2018-05-19T06:51:09.392Z,13.95
2018-05-19T06:52:14.414Z,11.02
2018-05-19T06:53:19.422Z,8.80
2018-05-19T06:54:24.380Z,10.27
2018-05-19T06:55:28.630Z,14.18
2018-05-19T06:56:32.963Z,13.27
2018-05-19T06:57:38.381Z,9.23
2018-05-19T06:58:42.606Z,14.00
2018-05-19T06:59:47.507Z,13.68
2018-05-19T07:00:51.542Z,13.23
2018-05-19T07:01:55.542Z,12.55
2018-05-19T07:02:59.560Z,12.90
2018-05-19T07:04:03.814Z,20.00
2018-05-19T07:05:07.854Z,10.20
2018-05-19T07:06:11.892Z,12.85
2018-05-19T07:07:15.913Z,13.25
2018-05-19T07:08:19.974Z,11.60
2018-05-19T07:09:24.462Z,10.20
2018-05-19T07:10:28.486Z,9.52
2018-05-19T07:11:32.563Z,10.07
2018-05-19T07:12:37.742Z,13.52
2018-05-19T07:13:41.874Z,13.10
2018-05-19T07:14:46.704Z,14.60
2018-05-19T07:15:51.997Z,13.43
2018-05-19T07:16:56.646Z,16.12
2018-05-19T07:18:01.645Z,13.07
2018-05-19T07:19:06.002Z,13.48
2018-05-19T07:20:10.385Z,9.98
2018-05-19T07:21:15.858Z,12.13
2018-05-19T07:22:20.206Z,8.75
2018-05-19T07:23:25.187Z,16.48
2018-05-19T07:24:29.588Z,11.27
2018-05-19T07:25:33.991Z,13.93
2018-05-19T07:26:38.199Z,16.25
2018-05-19T07:27:42.788Z,12.85
2018-05-19T07:28:48.902Z,10.73
2018-05-19T07:29:53.067Z,12.23
2018-05-19T07:30:57.351Z,12.18
2018-05-19T07:32:02.271Z,16.40
2018-05-19T07:33:07.083Z,15.98
2018-05-19T07:34:12.098Z,12.35
2018-05-19T07:35:16.293Z,10.48
2018-05-19T07:36:20.519Z,10.27
2018-05-19T07:37:25.496Z,17.10
2018-05-19T07:38:29.734Z,12.37
2018-05-19T07:40:37.738Z,15.63
2018-05-19T07:41:41.963Z,12.05
2018-05-19T07:42:47.010Z,12.43
2018-05-19T07:43:51.205Z,11.10
2018-05-19T07:44:55.292Z,13.77
2018-05-19T07:46:00.451Z,10.38
2018-05-19T07:47:04.573Z,14.85
2018-05-19T07:48:08.578Z,13.65
2018-05-19T07:49:12.607Z,14.13
2018-05-19T07:50:17.410Z,15.57
2018-05-19T07:51:21.622Z,11.80
2018-05-19T07:52:26.344Z,14.07
2018-05-19T07:53:31.382Z,9.80
2018-05-19T07:54:36.378Z,11.65
2018-05-19T07:55:40.622Z,12.05
2018-05-19T07:56:45.658Z,18.92
2018-05-19T07:57:50.730Z,16.60
2018-05-19T07:58:54.951Z,10.95
2018-05-19T07:59:59.150Z,15.27
2018-05-19T08:01:03.237Z,14.75
2018-05-19T08:02:07.272Z,11.88
2018-05-19T08:03:12.122Z,12.20
2018-05-19T08:04:16.256Z,12.10
2018-05-19T08:05:20.645Z,11.73
2018-05-19T08:06:24.907Z,16.83
2018-05-19T08:07:30.003Z,14.98
2018-05-19T08:08:34.266Z,10.27
2018-05-19T08:09:38.474Z,13.23
2018-05-19T08:10:42.689Z,14.75
2018-05-19T08:11:46.986Z,15.25
2018-05-19T08:12:51.374Z,12.63
2018-05-19T08:13:55.572Z,14.13
2018-05-19T08:15:00.578Z,17.50
2018-05-19T08:16:04.803Z,14.40
2018-05-19T08:17:10.094Z,16.45
2018-05-19T08:18:14.266Z,12.55
2018-05-19T08:19:18.458Z,18.65
2018-05-19T08:20:22.701Z,12.25
2018-05-19T08:21:26.729Z,16.27
2018-05-19T08:22:30.842Z,14.82
2018-05-19T08:23:35.928Z,10.75
2018-05-19T08:24:39.983Z,15.00
2018-05-19T08:25:44.045Z,14.75
2018-05-19T08:26:48.566Z,18.35
2018-05-19T08:27:53.217Z,17.77
2018-05-19T08:28:58.167Z,10.35
2018-05-19T08:30:03.218Z,15.93
2018-05-19T08:31:08.482Z,14.20
2018-05-19T08:32:14.514Z,14.10
2018-05-19T08:33:19.225Z,11.70
2018-05-19T08:34:23.779Z,16.00
2018-05-19T08:35:29.742Z,13.45
2018-05-19T08:36:34.255Z,12.00
2018-05-19T08:37:38.487Z,17.30
2018-05-19T08:38:42.514Z,15.25
2018-05-19T08:39:47.379Z,13.45
2018-05-19T08:40:51.397Z,14.05
2018-05-19T08:41:55.431Z,14.43
2018-05-19T08:42:59.488Z,19.27
2018-05-19T08:44:03.782Z,15.60
2018-05-19T08:45:07.945Z,13.55
2018-05-19T08:46:12.483Z,17.50
2018-05-19T08:47:16.618Z,15.13
2018-05-19T08:48:20.631Z,16.70
2018-05-19T08:49:24.875Z,13.20
2018-05-19T08:50:29.765Z,16.65
2018-05-19T08:51:33.930Z,17.23
2018-05-19T08:52:38.378Z,15.85
2018-05-19T08:53:42.423Z,16.83
2018-05-19T08:54:48.354Z,11.20
2018-05-19T08:55:53.269Z,13.62
2018-05-19T08:56:59.165Z,15.27
2018-05-19T08:58:04.292Z,15.60
2018-05-19T08:59:08.990Z,17.27
2018-05-19T09:00:13.177Z,14.30
2018-05-19T09:01:18.012Z,17.30
2018-05-19T09:02:23.880Z,16.50
2018-05-19T09:03:27.944Z,15.85
2018-05-19T09:04:33.323Z,14.43
2018-05-19T09:05:37.443Z,12.68
2018-05-19T09:06:42.131Z,16.62
2018-05-19T09:07:46.417Z,16.75
2018-05-19T09:08:50.705Z,14.48
2018-05-19T09:09:55.714Z,16.42
2018-05-19T09:11:00.379Z,13.50
2018-05-19T09:12:04.616Z,13.68
2018-05-19T09:13:08.850Z,15.48
2018-05-19T09:14:13.926Z,18.62
2018-05-19T09:15:18.123Z,13.15
2018-05-19T09:16:22.497Z,14.30
2018-05-19T09:17:27.998Z,16.25
2018-05-19T09:18:32.058Z,16.33
2018-05-19T09:19:36.265Z,19.58
2018-05-19T09:20:40.543Z,15.73
2018-05-19T09:21:45.359Z,18.75
2018-05-19T09:22:50.425Z,18.92
2018-05-19T09:23:54.458Z,19.20
2018-05-19T09:24:58.594Z,14.32
2018-05-19T09:26:03.430Z,12.48
2018-05-19T09:27:07.486Z,20.55
2018-05-19T09:28:12.587Z,15.68
2018-05-19T09:29:16.831Z,15.50
2018-05-19T09:30:21.027Z,19.17
2018-05-19T09:31:25.254Z,17.67
2018-05-19T09:32:29.482Z,18.60
2018-05-19T09:33:33.798Z,14.45
2018-05-19T09:34:38.309Z,13.20
2018-05-19T09:35:42.486Z,13.57
2018-05-19T09:36:46.603Z,17.60
2018-05-19T09:37:50.858Z,19.10
2018-05-19T09:38:55.109Z,17.77
2018-05-19T09:39:59.348Z,23.90
2018-05-19T09:41:04.996Z,16.30
2018-05-19T09:42:12.714Z,15.50
2018-05-19T09:43:16.987Z,16.55
2018-05-19T09:44:21.540Z,22.95
2018-05-19T09:45:26.786Z,21.33
2018-05-19T09:46:31.273Z,22.37
2018-05-19T09:47:35.549Z,20.58
2018-05-19T09:48:40.161Z,15.93
2018-05-19T09:49:44.383Z,16.77
2018-05-19T09:50:48.691Z,18.27
2018-05-19T09:51:52.918Z,14.57
2018-05-19T09:52:58.174Z,16.30
2018-05-19T09:54:02.349Z,20.00
2018-05-19T09:55:06.498Z,19.25
2018-05-19T09:56:10.546Z,20.27
2018-05-19T09:57:14.672Z,25.23
2018-05-19T09:58:19.554Z,14.02
2018-05-19T09:59:24.113Z,16.12
2018-05-19T10:00:28.965Z,17.95
2018-05-19T10:01:33.026Z,18.15
2018-05-19T10:02:37.837Z,18.02
2018-05-19T10:03:42.770Z,21.08
2018-05-19T10:04:48.045Z,19.05
2018-05-19T10:05:52.231Z,18.02
2018-05-19T10:06:56.447Z,21.67
2018-05-19T10:08:00.655Z,17.70
2018-05-19T10:09:06.154Z,18.52
2018-05-19T10:10:10.429Z,19.80
2018-05-19T10:11:15.686Z,22.13
2018-05-19T10:12:20.671Z,24.70
2018-05-19T10:13:24.708Z,34.42
2018-05-19T10:14:29.588Z,20.27
2018-05-19T10:15:33.638Z,21.98
2018-05-19T10:16:37.678Z,20.92
2018-05-19T10:17:41.722Z,23.98
2018-05-19T10:18:46.522Z,20.77
2018-05-19T10:19:50.803Z,18.65
2018-05-19T10:20:54.857Z,25.73
2018-05-19T10:21:59.662Z,20.65
2018-05-19T10:23:04.247Z,21.80
2018-05-19T10:24:08.438Z,23.80
2018-05-19T10:25:12.666Z,15.80
2018-05-19T10:26:16.791Z,18.75
2018-05-19T10:27:21.674Z,22.55
2018-05-19T10:28:25.806Z,19.92
2018-05-19T10:29:30.381Z,17.30
2018-05-19T10:30:34.531Z,26.92
2018-05-19T10:31:39.369Z,22.92
2018-05-19T10:32:43.673Z,23.58
2018-05-19T10:33:47.858Z,23.73
2018-05-19T10:34:51.903Z,20.83
2018-05-19T10:35:55.975Z,22.33
2018-05-19T10:37:01.074Z,22.73
2018-05-19T10:38:05.572Z,26.62
2018-05-19T10:39:09.709Z,24.55
2018-05-19T10:40:14.599Z,25.92
2018-05-19T10:41:18.999Z,24.30
2018-05-19T10:42:23.427Z,19.83
2018-05-19T10:43:28.124Z,27.23
2018-05-19T10:44:32.434Z,26.87
2018-05-19T10:45:36.480Z,24.75
2018-05-19T10:46:41.315Z,20.02
2018-05-19T10:47:45.652Z,24.12
2018-05-19T10:48:49.760Z,21.40
2018-05-19T10:49:54.619Z,21.73
2018-05-19T10:50:59.783Z,25.73
2018-05-19T10:52:05.911Z,24.60
2018-05-19T10:53:10.990Z,20.20
2018-05-19T10:54:15.058Z,22.55
2018-05-19T10:55:19.095Z,22.98
2018-05-19T10:56:23.143Z,26.15
2018-05-19T10:57:27.197Z,25.23
2018-05-19T10:58:31.291Z,24.75
2018-05-19T10:59:35.640Z,22.75
2018-05-19T11:00:40.454Z,27.13
2018-05-19T11:01:45.458Z,22.10
2018-05-19T11:02:49.663Z,22.13
2018-05-19T11:03:53.987Z,21.85
2018-05-19T11:04:58.937Z,19.90
2018-05-19T11:06:04.190Z,22.55
2018-05-19T11:07:08.363Z,30.23
2018-05-19T11:08:13.337Z,30.75
2018-05-19T11:09:17.423Z,23.65
2018-05-19T11:10:21.485Z,24.48
2018-05-19T11:11:26.542Z,24.37
2018-05-19T11:12:30.582Z,24.23
2018-05-19T11:13:34.570Z,25.48
2018-05-19T11:14:38.599Z,27.80
2018-05-19T11:15:43.445Z,26.42
2018-05-19T11:16:47.486Z,22.95
2018-05-19T11:17:52.699Z,26.80
2018-05-19T11:18:56.797Z,28.38
2018-05-19T11:20:00.836Z,24.40
2018-05-19T11:21:05.630Z,25.58
2018-05-19T11:22:09.630Z,21.98
2018-05-19T11:23:13.654Z,18.90
2018-05-19T11:24:17.955Z,25.35
2018-05-19T11:25:22.019Z,23.70
2018-05-19T11:26:26.057Z,23.62
2018-05-19T11:27:30.142Z,27.10
2018-05-19T11:28:34.611Z,21.65
2018-05-19T11:29:39.154Z,27.08
2018-05-19T11:30:43.387Z,21.75
2018-05-19T11:31:47.611Z,24.00
2018-05-19T11:32:51.730Z,24.70
2018-05-19T11:33:56.594Z,22.15
2018-05-19T11:35:00.777Z,21.70
2018-05-19T11:36:05.145Z,24.42
2018-05-19T11:37:09.349Z,28.95
2018-05-19T11:38:13.643Z,28.77
2018-05-19T11:39:18.618Z,29.98
2018-05-19T11:40:22.862Z,26.73
2018-05-19T11:41:27.072Z,21.90
2018-05-19T11:42:31.305Z,24.20
2018-05-19T11:43:36.290Z,24.30
2018-05-19T11:44:40.507Z,29.02
2018-05-19T11:45:44.750Z,20.52
2018-05-19T11:46:49.922Z,25.35
2018-05-19T11:47:54.662Z,24.27
2018-05-19T11:48:59.008Z,22.42
2018-05-19T11:50:03.243Z,27.58
2018-05-19T11:51:07.587Z,18.98
2018-05-19T11:52:12.564Z,23.80
2018-05-19T11:53:16.806Z,25.23
2018-05-19T11:54:21.265Z,24.12
2018-05-19T11:55:25.675Z,28.05
2018-05-19T11:56:29.966Z,23.27
2018-05-19T11:57:34.993Z,22.30
2018-05-19T11:58:39.075Z,21.27
2018-05-19T11:59:43.155Z,24.37
2018-05-19T12:00:47.318Z,26.83
2018-05-19T12:01:51.452Z,25.85
2018-05-19T12:02:55.528Z,25.70
2018-05-19T12:03:59.582Z,27.73
2018-05-19T12:05:03.666Z,26.55
2018-05-19T12:06:07.974Z,25.12
2018-05-19T12:07:12.803Z,23.25
2018-05-19T12:08:16.937Z,23.60
2018-05-19T12:09:21.922Z,21.35
2018-05-19T12:10:26.907Z,22.95
2018-05-19T12:11:31.200Z,25.45
2018-05-19T12:12:35.714Z,22.15
2018-05-19T12:13:39.946Z,24.87
2018-05-19T12:14:44.226Z,26.25
2018-05-19T12:15:48.455Z,32.75
2018-05-19T12:16:53.502Z,23.85
2018-05-19T12:17:57.741Z,26.87
2018-05-19T12:19:02.698Z,28.55
2018-05-19T12:20:06.861Z,26.52
2018-05-19T12:21:11.793Z,25.20
2018-05-19T12:22:16.600Z,26.27
2018-05-19T12:23:20.690Z,27.35
2018-05-19T12:24:25.090Z,29.05
2018-05-19T12:25:29.183Z,23.58
2018-05-19T12:26:34.026Z,41.25
2018-05-19T12:27:38.115Z,26.83
2018-05-19T12:28:42.423Z,37.78
2018-05-19T12:29:47.414Z,28.35
2018-05-19T12:30:51.870Z,23.92
2018-05-19T12:31:56.177Z,25.98
2018-05-19T12:33:00.443Z,25.92
2018-05-19T12:34:04.695Z,24.05
2018-05-19T12:35:08.908Z,18.52
2018-05-19T12:36:13.878Z,22.60
2018-05-19T12:37:17.950Z,23.77
2018-05-19T12:38:22.042Z,20.35
2018-05-19T12:39:26.870Z,24.50
2018-05-19T12:40:30.912Z,24.73
2018-05-19T12:41:35.066Z,22.77
2018-05-19T12:42:39.069Z,24.52
2018-05-19T12:43:44.142Z,26.77
2018-05-19T12:45:18.799Z,28.08
2018-05-19T12:46:23.931Z,22.08
2018-05-19T12:47:29.761Z,28.77
2018-05-19T12:48:35.037Z,27.52
2018-05-19T12:49:39.487Z,26.77
2018-05-19T12:50:44.626Z,22.95
2018-05-19T12:51:48.889Z,21.75
2018-05-19T12:52:53.126Z,23.77
2018-05-19T12:53:57.509Z,21.73
2018-05-19T12:55:01.980Z,22.48
2018-05-19T12:56:06.943Z,21.77
2018-05-19T12:57:11.142Z,21.23
2018-05-19T12:58:15.455Z,29.08
2018-05-19T12:59:19.661Z,25.25
2018-05-19T13:00:24.176Z,24.20
2018-05-19T13:01:28.382Z,22.83
2018-05-19T13:02:32.607Z,20.10
2018-05-19T13:03:36.833Z,23.90
2018-05-19T13:04:40.808Z,27.37
2018-05-19T13:05:44.859Z,23.42
2018-05-19T13:06:49.170Z,28.90
2018-05-19T13:07:53.219Z,24.17
2018-05-19T13:08:57.425Z,30.17
2018-05-19T13:10:01.555Z,21.83
2018-05-19T13:11:06.386Z,28.23
2018-05-19T13:12:11.263Z,26.77
2018-05-19T13:13:15.585Z,28.62
2018-05-19T13:14:19.656Z,28.90
2018-05-19T13:15:23.722Z,21.95
2018-05-19T13:16:27.850Z,25.95
2018-05-19T13:17:31.930Z,29.20
2018-05-19T13:18:36.174Z,24.12
2018-05-19T13:19:40.389Z,27.40
2018-05-19T13:20:45.379Z,21.70
2018-05-19T13:21:49.670Z,21.25
2018-05-19T13:22:53.979Z,22.05
2018-05-19T13:23:58.153Z,25.58
2018-05-19T13:25:02.216Z,20.10
2018-05-19T13:26:07.058Z,22.90
2018-05-19T13:27:11.213Z,23.23
2018-05-19T13:28:15.274Z,27.52
2018-05-19T13:29:19.312Z,20.65
2018-05-19T13:30:23.374Z,26.30
2018-05-19T13:31:27.461Z,23.95
2018-05-19T13:32:31.986Z,22.75
2018-05-19T13:33:36.186Z,25.30
2018-05-19T13:34:41.246Z,21.80
2018-05-19T13:35:45.790Z,21.90
2018-05-19T13:36:50.701Z,23.80
2018-05-19T13:37:55.087Z,23.50
2018-05-19T13:38:59.891Z,23.17
2018-05-19T13:40:04.700Z,28.40
2018-05-19T13:41:08.935Z,24.73
2018-05-19T13:42:13.162Z,21.12
2018-05-19T13:43:17.469Z,24.52
2018-05-19T13:44:22.748Z,22.85
2018-05-19T13:45:28.014Z,23.98
2018-05-19T13:46:32.422Z,25.08
2018-05-19T13:47:38.085Z,25.67
2018-05-19T13:48:43.202Z,25.92
2018-05-19T13:49:47.426Z,24.85
2018-05-19T13:50:51.538Z,22.50
2018-05-19T13:51:55.663Z,22.87
2018-05-19T13:52:59.723Z,21.40
2018-05-19T13:54:03.814Z,27.58
2018-05-19T13:55:08.151Z,27.42
2018-05-19T13:56:12.186Z,21.90
2018-05-19T13:57:16.982Z,23.60
2018-05-19T13:58:21.032Z,25.60
2018-05-19T13:59:25.072Z,26.62
2018-05-19T14:00:29.141Z,23.62
2018-05-19T14:01:33.703Z,23.42
2018-05-19T14:02:37.750Z,21.52
2018-05-19T14:03:41.769Z,23.77
2018-05-19T14:04:45.823Z,23.80
2018-05-19T14:05:50.990Z,22.80